sensor_id;sensor_type;location;lat;lon;timestamp;P1;durP1;ratioP1;P2;durP2;ratioP2
13720;SDS011;6932;51.438;5.470;2022-07-18T00:00:31;4.27;;;2.07;;
13720;SDS011;6932;51.438;5.470;2022-07-18T00:02:57;4.30;;;1.90;;
13720;SDS011;6932;51.438;5.470;2022-07-18T00:05:23;2.87;;;1.70;;
13720;SDS011;6932;51.438;5.470;2022-07-18T00:07:49;4.10;;;1.90;;
13720;SDS011;6932;51.438;5.470;2022-07-18T00:10:14;2.93;;;1.60;;
13720;SDS011;6932;51.438;5.470;2022-07-18T00:12:41;3.60;;;2.00;;
13720;SDS011;6932;51.438;5.470;2022-07-18T00:15:08;2.57;;;1.80;;
13720;SDS011;6932;51.438;5.470;2022-07-18T00:17:37;2.47;;;1.60;;
13720;SDS011;6932;51.438;5.470;2022-07-18T00:20:04;3.23;;;1.60;;
13720;SDS011;6932;51.438;5.470;2022-07-18T00:22:32;2.50;;;1.70;;
13720;SDS011;6932;51.438;5.470;2022-07-18T00:24:58;3.10;;;2.00;;
13720;SDS011;6932;51.438;5.470;2022-07-18T00:27:24;3.40;;;1.80;;
13720;SDS011;6932;51.438;5.470;2022-07-18T00:29:50;3.93;;;2.00;;
13720;SDS011;6932;51.438;5.470;2022-07-18T00:32:15;5.10;;;1.90;;
13720;SDS011;6932;51.438;5.470;2022-07-18T00:34:41;3.33;;;1.90;;
13720;SDS011;6932;51.438;5.470;2022-07-18T00:37:07;1.97;;;1.60;;
13720;SDS011;6932;51.438;5.470;2022-07-18T00:39:33;4.33;;;1.80;;
13720;SDS011;6932;51.438;5.470;2022-07-18T00:41:59;5.30;;;2.10;;
13720;SDS011;6932;51.438;5.470;2022-07-18T00:44:25;3.73;;;1.77;;
13720;SDS011;6932;51.438;5.470;2022-07-18T00:46:55;4.17;;;2.30;;
13720;SDS011;6932;51.438;5.470;2022-07-18T00:49:25;4.87;;;2.10;;
13720;SDS011;6932;51.438;5.470;2022-07-18T00:51:52;4.63;;;2.00;;
13720;SDS011;6932;51.438;5.470;2022-07-18T00:54:18;4.80;;;2.07;;
13720;SDS011;6932;51.438;5.470;2022-07-18T00:56:45;3.83;;;2.37;;
13720;SDS011;6932;51.438;5.470;2022-07-18T00:59:13;4.07;;;2.03;;
13720;SDS011;6932;51.438;5.470;2022-07-18T01:01:39;3.07;;;1.80;;
13720;SDS011;6932;51.438;5.470;2022-07-18T01:04:21;5.50;;;2.10;;
13720;SDS011;6932;51.438;5.470;2022-07-18T01:06:49;7.00;;;2.20;;
13720;SDS011;6932;51.438;5.470;2022-07-18T01:09:16;4.30;;;2.20;;
13720;SDS011;6932;51.438;5.470;2022-07-18T01:11:44;5.00;;;2.20;;
13720;SDS011;6932;51.438;5.470;2022-07-18T01:14:12;5.30;;;2.43;;
13720;SDS011;6932;51.438;5.470;2022-07-18T01:16:39;4.03;;;2.37;;
13720;SDS011;6932;51.438;5.470;2022-07-18T01:19:05;4.67;;;2.10;;
13720;SDS011;6932;51.438;5.470;2022-07-18T01:21:31;5.17;;;2.20;;
13720;SDS011;6932;51.438;5.470;2022-07-18T01:23:57;4.63;;;2.27;;
13720;SDS011;6932;51.438;5.470;2022-07-18T01:26:23;3.57;;;2.10;;
13720;SDS011;6932;51.438;5.470;2022-07-18T01:28:49;4.87;;;2.03;;
13720;SDS011;6932;51.438;5.470;2022-07-18T01:31:15;4.07;;;1.90;;
13720;SDS011;6932;51.438;5.470;2022-07-18T01:33:41;4.50;;;2.23;;
13720;SDS011;6932;51.438;5.470;2022-07-18T01:36:07;3.57;;;2.40;;
13720;SDS011;6932;51.438;5.470;2022-07-18T01:38:34;5.83;;;2.50;;
13720;SDS011;6932;51.438;5.470;2022-07-18T01:41:00;6.33;;;2.40;;
13720;SDS011;6932;51.438;5.470;2022-07-18T01:43:26;5.07;;;2.60;;
13720;SDS011;6932;51.438;5.470;2022-07-18T01:45:53;4.63;;;2.43;;
13720;SDS011;6932;51.438;5.470;2022-07-18T01:48:19;4.77;;;2.30;;
13720;SDS011;6932;51.438;5.470;2022-07-18T01:50:48;3.40;;;2.30;;
13720;SDS011;6932;51.438;5.470;2022-07-18T01:53:14;6.53;;;2.83;;
13720;SDS011;6932;51.438;5.470;2022-07-18T01:55:40;5.20;;;2.43;;
13720;SDS011;6932;51.438;5.470;2022-07-18T01:58:06;5.17;;;2.53;;
13720;SDS011;6932;51.438;5.470;2022-07-18T02:00:32;5.73;;;2.43;;
13720;SDS011;6932;51.438;5.470;2022-07-18T02:02:58;7.47;;;2.60;;
13720;SDS011;6932;51.438;5.470;2022-07-18T02:05:23;6.53;;;2.70;;
13720;SDS011;6932;51.438;5.470;2022-07-18T02:07:49;6.87;;;2.90;;
13720;SDS011;6932;51.438;5.470;2022-07-18T02:10:17;5.67;;;2.50;;
13720;SDS011;6932;51.438;5.470;2022-07-18T02:12:45;4.67;;;2.90;;
13720;SDS011;6932;51.438;5.470;2022-07-18T02:15:12;4.37;;;2.50;;
13720;SDS011;6932;51.438;5.470;2022-07-18T02:17:40;6.37;;;2.80;;
13720;SDS011;6932;51.438;5.470;2022-07-18T02:20:07;3.93;;;2.40;;
13720;SDS011;6932;51.438;5.470;2022-07-18T02:22:35;5.63;;;2.60;;
13720;SDS011;6932;51.438;5.470;2022-07-18T02:25:01;5.03;;;2.70;;
13720;SDS011;6932;51.438;5.470;2022-07-18T02:27:29;3.93;;;2.50;;
13720;SDS011;6932;51.438;5.470;2022-07-18T02:29:55;3.93;;;2.63;;
13720;SDS011;6932;51.438;5.470;2022-07-18T02:32:20;4.33;;;2.40;;
13720;SDS011;6932;51.438;5.470;2022-07-18T02:34:48;6.80;;;2.97;;
13720;SDS011;6932;51.438;5.470;2022-07-18T02:37:14;4.77;;;2.60;;
13720;SDS011;6932;51.438;5.470;2022-07-18T02:39:41;5.90;;;2.60;;
13720;SDS011;6932;51.438;5.470;2022-07-18T02:42:06;6.23;;;2.63;;
13720;SDS011;6932;51.438;5.470;2022-07-18T02:44:32;5.43;;;2.60;;
13720;SDS011;6932;51.438;5.470;2022-07-18T02:46:58;5.67;;;2.73;;
13720;SDS011;6932;51.438;5.470;2022-07-18T02:49:24;4.87;;;2.53;;
13720;SDS011;6932;51.438;5.470;2022-07-18T02:52:03;4.43;;;2.47;;
13720;SDS011;6932;51.438;5.470;2022-07-18T02:54:34;6.60;;;3.03;;
13720;SDS011;6932;51.438;5.470;2022-07-18T02:57:03;6.33;;;2.57;;
13720;SDS011;6932;51.438;5.470;2022-07-18T02:59:30;5.43;;;2.90;;
13720;SDS011;6932;51.438;5.470;2022-07-18T03:01:56;7.43;;;3.00;;
13720;SDS011;6932;51.438;5.470;2022-07-18T03:04:23;5.53;;;2.70;;
13720;SDS011;6932;51.438;5.470;2022-07-18T03:06:50;6.17;;;2.73;;
13720;SDS011;6932;51.438;5.470;2022-07-18T03:09:16;5.40;;;2.63;;
13720;SDS011;6932;51.438;5.470;2022-07-18T03:11:43;5.10;;;2.60;;
13720;SDS011;6932;51.438;5.470;2022-07-18T03:14:09;4.27;;;2.80;;
13720;SDS011;6932;51.438;5.470;2022-07-18T03:16:35;4.87;;;2.73;;
13720;SDS011;6932;51.438;5.470;2022-07-18T03:19:01;5.77;;;2.60;;
13720;SDS011;6932;51.438;5.470;2022-07-18T03:21:27;4.10;;;2.70;;
13720;SDS011;6932;51.438;5.470;2022-07-18T03:23:54;5.57;;;2.97;;
13720;SDS011;6932;51.438;5.470;2022-07-18T03:26:20;5.70;;;3.03;;
13720;SDS011;6932;51.438;5.470;2022-07-18T03:28:46;6.90;;;2.90;;
13720;SDS011;6932;51.438;5.470;2022-07-18T03:31:11;5.97;;;3.00;;
13720;SDS011;6932;51.438;5.470;2022-07-18T03:33:38;4.50;;;2.70;;
13720;SDS011;6932;51.438;5.470;2022-07-18T03:36:04;8.63;;;3.03;;
13720;SDS011;6932;51.438;5.470;2022-07-18T03:38:30;5.17;;;3.00;;
13720;SDS011;6932;51.438;5.470;2022-07-18T03:40:56;5.83;;;2.97;;
13720;SDS011;6932;51.438;5.470;2022-07-18T03:43:22;6.83;;;3.13;;
13720;SDS011;6932;51.438;5.470;2022-07-18T03:45:48;6.10;;;3.20;;
13720;SDS011;6932;51.438;5.470;2022-07-18T03:48:14;6.53;;;3.10;;
13720;SDS011;6932;51.438;5.470;2022-07-18T03:50:40;5.17;;;3.20;;
13720;SDS011;6932;51.438;5.470;2022-07-18T03:53:07;6.03;;;3.33;;
13720;SDS011;6932;51.438;5.470;2022-07-18T03:55:33;6.27;;;3.27;;
13720;SDS011;6932;51.438;5.470;2022-07-18T03:57:58;7.10;;;3.23;;
13720;SDS011;6932;51.438;5.470;2022-07-18T04:00:24;6.30;;;3.07;;
13720;SDS011;6932;51.438;5.470;2022-07-18T04:02:50;7.73;;;3.80;;
13720;SDS011;6932;51.438;5.470;2022-07-18T04:05:15;5.90;;;3.40;;
13720;SDS011;6932;51.438;5.470;2022-07-18T04:07:42;5.43;;;3.30;;
13720;SDS011;6932;51.438;5.470;2022-07-18T04:10:09;7.57;;;3.70;;
13720;SDS011;6932;51.438;5.470;2022-07-18T04:12:43;6.47;;;3.50;;
13720;SDS011;6932;51.438;5.470;2022-07-18T04:15:15;8.53;;;3.40;;
13720;SDS011;6932;51.438;5.470;2022-07-18T04:17:41;6.03;;;3.20;;
13720;SDS011;6932;51.438;5.470;2022-07-18T04:20:07;6.23;;;3.00;;
13720;SDS011;6932;51.438;5.470;2022-07-18T04:22:51;7.37;;;3.30;;
13720;SDS011;6932;51.438;5.470;2022-07-18T04:25:24;7.33;;;3.40;;
13720;SDS011;6932;51.438;5.470;2022-07-18T04:27:53;6.60;;;3.10;;
13720;SDS011;6932;51.438;5.470;2022-07-18T04:30:21;6.47;;;2.87;;
13720;SDS011;6932;51.438;5.470;2022-07-18T04:32:50;6.03;;;3.10;;
13720;SDS011;6932;51.438;5.470;2022-07-18T04:35:16;5.07;;;3.17;;
13720;SDS011;6932;51.438;5.470;2022-07-18T04:37:42;8.00;;;3.40;;
13720;SDS011;6932;51.438;5.470;2022-07-18T04:40:08;8.00;;;3.20;;
13720;SDS011;6932;51.438;5.470;2022-07-18T04:42:36;5.57;;;3.07;;
13720;SDS011;6932;51.438;5.470;2022-07-18T04:45:02;4.23;;;3.00;;
13720;SDS011;6932;51.438;5.470;2022-07-18T04:47:30;7.47;;;3.03;;
13720;SDS011;6932;51.438;5.470;2022-07-18T04:49:56;4.27;;;2.90;;
13720;SDS011;6932;51.438;5.470;2022-07-18T04:52:22;5.40;;;3.10;;
13720;SDS011;6932;51.438;5.470;2022-07-18T04:54:48;5.40;;;2.93;;
13720;SDS011;6932;51.438;5.470;2022-07-18T04:57:15;8.00;;;3.00;;
13720;SDS011;6932;51.438;5.470;2022-07-18T04:59:41;4.37;;;3.00;;
13720;SDS011;6932;51.438;5.470;2022-07-18T05:02:08;5.73;;;3.20;;
13720;SDS011;6932;51.438;5.470;2022-07-18T05:04:35;6.27;;;3.60;;
13720;SDS011;6932;51.438;5.470;2022-07-18T05:07:03;6.23;;;3.20;;
13720;SDS011;6932;51.438;5.470;2022-07-18T05:09:30;7.43;;;3.30;;
13720;SDS011;6932;51.438;5.470;2022-07-18T05:11:55;7.17;;;3.30;;
13720;SDS011;6932;51.438;5.470;2022-07-18T05:14:21;6.17;;;3.40;;
13720;SDS011;6932;51.438;5.470;2022-07-18T05:16:48;6.13;;;3.20;;
13720;SDS011;6932;51.438;5.470;2022-07-18T05:19:14;6.73;;;3.13;;
13720;SDS011;6932;51.438;5.470;2022-07-18T05:21:41;6.50;;;3.20;;
13720;SDS011;6932;51.438;5.470;2022-07-18T05:24:08;5.40;;;3.60;;
13720;SDS011;6932;51.438;5.470;2022-07-18T05:26:34;6.27;;;3.20;;
13720;SDS011;6932;51.438;5.470;2022-07-18T05:29:00;5.83;;;3.33;;
13720;SDS011;6932;51.438;5.470;2022-07-18T05:31:26;7.60;;;3.27;;
13720;SDS011;6932;51.438;5.470;2022-07-18T05:33:52;7.17;;;3.67;;
13720;SDS011;6932;51.438;5.470;2022-07-18T05:36:17;6.10;;;3.30;;
13720;SDS011;6932;51.438;5.470;2022-07-18T05:38:43;6.90;;;3.43;;
13720;SDS011;6932;51.438;5.470;2022-07-18T05:41:09;7.37;;;3.70;;
13720;SDS011;6932;51.438;5.470;2022-07-18T05:43:35;8.17;;;3.73;;
13720;SDS011;6932;51.438;5.470;2022-07-18T05:46:00;8.90;;;3.70;;
13720;SDS011;6932;51.438;5.470;2022-07-18T05:48:26;7.87;;;3.50;;
13720;SDS011;6932;51.438;5.470;2022-07-18T05:50:53;6.97;;;3.90;;
13720;SDS011;6932;51.438;5.470;2022-07-18T05:53:19;6.63;;;4.03;;
13720;SDS011;6932;51.438;5.470;2022-07-18T05:55:44;9.40;;;4.00;;
13720;SDS011;6932;51.438;5.470;2022-07-18T05:58:10;10.37;;;4.60;;
13720;SDS011;6932;51.438;5.470;2022-07-18T06:00:36;9.20;;;4.37;;
13720;SDS011;6932;51.438;5.470;2022-07-18T06:03:03;8.73;;;4.67;;
13720;SDS011;6932;51.438;5.470;2022-07-18T06:05:29;8.17;;;4.07;;
13720;SDS011;6932;51.438;5.470;2022-07-18T06:07:55;9.47;;;4.33;;
13720;SDS011;6932;51.438;5.470;2022-07-18T06:10:22;7.93;;;4.40;;
13720;SDS011;6932;51.438;5.470;2022-07-18T06:12:50;8.40;;;4.20;;
13720;SDS011;6932;51.438;5.470;2022-07-18T06:15:17;10.00;;;4.10;;
13720;SDS011;6932;51.438;5.470;2022-07-18T06:17:42;10.67;;;4.40;;
13720;SDS011;6932;51.438;5.470;2022-07-18T06:20:08;7.13;;;4.00;;
13720;SDS011;6932;51.438;5.470;2022-07-18T06:22:35;7.50;;;4.13;;
13720;SDS011;6932;51.438;5.470;2022-07-18T06:25:02;10.60;;;4.63;;
13720;SDS011;6932;51.438;5.470;2022-07-18T06:27:29;7.23;;;4.07;;
13720;SDS011;6932;51.438;5.470;2022-07-18T06:29:54;9.60;;;4.10;;
13720;SDS011;6932;51.438;5.470;2022-07-18T06:32:20;9.33;;;4.43;;
13720;SDS011;6932;51.438;5.470;2022-07-18T06:34:46;8.60;;;3.87;;
13720;SDS011;6932;51.438;5.470;2022-07-18T06:37:12;9.10;;;4.20;;
13720;SDS011;6932;51.438;5.470;2022-07-18T06:39:37;7.23;;;3.90;;
13720;SDS011;6932;51.438;5.470;2022-07-18T06:42:03;9.80;;;4.07;;
13720;SDS011;6932;51.438;5.470;2022-07-18T06:44:29;8.90;;;3.80;;
13720;SDS011;6932;51.438;5.470;2022-07-18T06:46:55;7.80;;;3.97;;
13720;SDS011;6932;51.438;5.470;2022-07-18T06:49:22;7.70;;;3.75;;
13720;SDS011;6932;51.438;5.470;2022-07-18T06:51:50;6.77;;;3.60;;
13720;SDS011;6932;51.438;5.470;2022-07-18T06:54:16;6.40;;;3.23;;
13720;SDS011;6932;51.438;5.470;2022-07-18T06:56:42;6.88;;;3.20;;
13720;SDS011;6932;51.438;5.470;2022-07-18T06:59:08;6.32;;;3.35;;
13720;SDS011;6932;51.438;5.470;2022-07-18T07:01:34;5.68;;;2.90;;
13720;SDS011;6932;51.438;5.470;2022-07-18T07:03:59;5.20;;;2.58;;
13720;SDS011;6932;51.438;5.470;2022-07-18T07:06:25;5.35;;;2.63;;
13720;SDS011;6932;51.438;5.470;2022-07-18T07:08:51;8.77;;;2.95;;
13720;SDS011;6932;51.438;5.470;2022-07-18T07:11:18;5.68;;;2.42;;
13720;SDS011;6932;51.438;5.470;2022-07-18T07:13:43;4.18;;;2.30;;
13720;SDS011;6932;51.438;5.470;2022-07-18T07:16:09;6.70;;;2.72;;
13720;SDS011;6932;51.438;5.470;2022-07-18T07:18:35;5.72;;;2.30;;
13720;SDS011;6932;51.438;5.470;2022-07-18T07:21:00;4.28;;;2.00;;
13720;SDS011;6932;51.438;5.470;2022-07-18T07:23:27;3.50;;;2.10;;
13720;SDS011;6932;51.438;5.470;2022-07-18T07:25:52;7.55;;;2.25;;
13720;SDS011;6932;51.438;5.470;2022-07-18T07:28:19;3.50;;;1.90;;
13720;SDS011;6932;51.438;5.470;2022-07-18T07:30:45;5.07;;;2.10;;
13720;SDS011;6932;51.438;5.470;2022-07-18T07:33:11;6.35;;;2.20;;
13720;SDS011;6932;51.438;5.470;2022-07-18T07:35:37;4.35;;;2.17;;
13720;SDS011;6932;51.438;5.470;2022-07-18T07:38:02;3.80;;;1.95;;
13720;SDS011;6932;51.438;5.470;2022-07-18T07:40:29;2.90;;;1.80;;
13720;SDS011;6932;51.438;5.470;2022-07-18T07:43:08;4.05;;;1.90;;
13720;SDS011;6932;51.438;5.470;2022-07-18T07:45:38;2.75;;;1.75;;
13720;SDS011;6932;51.438;5.470;2022-07-18T07:48:05;9.25;;;2.00;;
13720;SDS011;6932;51.438;5.470;2022-07-18T07:50:32;5.32;;;2.13;;
13720;SDS011;6932;51.438;5.470;2022-07-18T07:52:58;4.57;;;1.98;;
13720;SDS011;6932;51.438;5.470;2022-07-18T07:55:25;3.72;;;1.73;;
13720;SDS011;6932;51.438;5.470;2022-07-18T07:57:53;4.05;;;1.80;;
13720;SDS011;6932;51.438;5.470;2022-07-18T08:00:19;3.80;;;1.90;;
13720;SDS011;6932;51.438;5.470;2022-07-18T08:02:58;4.18;;;1.80;;
13720;SDS011;6932;51.438;5.470;2022-07-18T08:05:27;5.43;;;2.05;;
13720;SDS011;6932;51.438;5.470;2022-07-18T08:07:55;3.92;;;2.00;;
13720;SDS011;6932;51.438;5.470;2022-07-18T08:10:22;3.85;;;2.03;;
13720;SDS011;6932;51.438;5.470;2022-07-18T08:12:48;4.43;;;1.90;;
13720;SDS011;6932;51.438;5.470;2022-07-18T08:15:14;2.20;;;1.73;;
13720;SDS011;6932;51.438;5.470;2022-07-18T08:17:40;3.05;;;1.85;;
13720;SDS011;6932;51.438;5.470;2022-07-18T08:20:06;2.88;;;1.77;;
13720;SDS011;6932;51.438;5.470;2022-07-18T08:22:33;4.47;;;1.90;;
13720;SDS011;6932;51.438;5.470;2022-07-18T08:24:59;5.57;;;1.90;;
13720;SDS011;6932;51.438;5.470;2022-07-18T08:27:26;5.32;;;1.80;;
13720;SDS011;6932;51.438;5.470;2022-07-18T08:29:52;2.88;;;1.63;;
13720;SDS011;6932;51.438;5.470;2022-07-18T08:32:17;3.60;;;1.60;;
13720;SDS011;6932;51.438;5.470;2022-07-18T08:34:43;4.38;;;2.00;;
13720;SDS011;6932;51.438;5.470;2022-07-18T08:37:09;3.33;;;1.77;;
13720;SDS011;6932;51.438;5.470;2022-07-18T08:39:34;1.95;;;1.40;;
13720;SDS011;6932;51.438;5.470;2022-07-18T08:42:00;4.65;;;1.90;;
13720;SDS011;6932;51.438;5.470;2022-07-18T08:44:29;6.75;;;2.13;;
13720;SDS011;6932;51.438;5.470;2022-07-18T08:46:59;4.25;;;1.63;;
13720;SDS011;6932;51.438;5.470;2022-07-18T08:49:26;3.97;;;1.80;;
13720;SDS011;6932;51.438;5.470;2022-07-18T08:51:52;4.28;;;1.77;;
13720;SDS011;6932;51.438;5.470;2022-07-18T08:54:19;3.35;;;1.60;;
13720;SDS011;6932;51.438;5.470;2022-07-18T08:56:45;2.78;;;1.77;;
13720;SDS011;6932;51.438;5.470;2022-07-18T08:59:10;4.22;;;1.80;;
13720;SDS011;6932;51.438;5.470;2022-07-18T09:01:36;4.38;;;1.70;;
13720;SDS011;6932;51.438;5.470;2022-07-18T09:04:02;3.80;;;1.55;;
13720;SDS011;6932;51.438;5.470;2022-07-18T09:06:43;2.97;;;1.50;;
13720;SDS011;6932;51.438;5.470;2022-07-18T09:09:12;2.50;;;1.45;;
13720;SDS011;6932;51.438;5.470;2022-07-18T09:11:57;4.82;;;1.70;;
13720;SDS011;6932;51.438;5.470;2022-07-18T09:14:40;4.15;;;1.83;;
13720;SDS011;6932;51.438;5.470;2022-07-18T09:17:11;3.28;;;1.73;;
13720;SDS011;6932;51.438;5.470;2022-07-18T09:20:04;5.05;;;1.60;;
13720;SDS011;6932;51.438;5.470;2022-07-18T09:22:44;3.03;;;1.40;;
13720;SDS011;6932;51.438;5.470;2022-07-18T09:25:16;4.60;;;1.38;;
13720;SDS011;6932;51.438;5.470;2022-07-18T09:27:46;2.75;;;1.67;;
13720;SDS011;6932;51.438;5.470;2022-07-18T09:30:20;4.60;;;1.60;;
13720;SDS011;6932;51.438;5.470;2022-07-18T09:35:45;2.10;;;1.55;;
13720;SDS011;6932;51.438;5.470;2022-07-18T09:38:14;2.58;;;1.60;;
13720;SDS011;6932;51.438;5.470;2022-07-18T09:40:44;3.28;;;1.42;;
13720;SDS011;6932;51.438;5.470;2022-07-18T09:43:14;3.13;;;1.70;;
13720;SDS011;6932;51.438;5.470;2022-07-18T09:45:44;5.25;;;1.60;;
13720;SDS011;6932;51.438;5.470;2022-07-18T09:48:24;4.38;;;1.80;;
13720;SDS011;6932;51.438;5.470;2022-07-18T09:50:56;4.40;;;1.90;;
13720;SDS011;6932;51.438;5.470;2022-07-18T09:53:32;3.50;;;1.75;;
13720;SDS011;6932;51.438;5.470;2022-07-18T09:56:13;3.80;;;1.70;;
13720;SDS011;6932;51.438;5.470;2022-07-18T09:58:52;2.28;;;1.58;;
13720;SDS011;6932;51.438;5.470;2022-07-18T10:01:21;5.07;;;1.50;;
13720;SDS011;6932;51.438;5.470;2022-07-18T10:03:48;2.80;;;1.48;;
13720;SDS011;6932;51.438;5.470;2022-07-18T10:06:15;3.30;;;1.50;;
13720;SDS011;6932;51.438;5.470;2022-07-18T10:08:43;3.78;;;1.55;;
13720;SDS011;6932;51.438;5.470;2022-07-18T10:11:09;3.10;;;1.50;;
13720;SDS011;6932;51.438;5.470;2022-07-18T10:13:36;3.35;;;1.63;;
13720;SDS011;6932;51.438;5.470;2022-07-18T10:16:04;3.85;;;1.52;;
13720;SDS011;6932;51.438;5.470;2022-07-18T10:18:32;2.75;;;1.70;;
13720;SDS011;6932;51.438;5.470;2022-07-18T10:23:31;2.45;;;1.60;;
13720;SDS011;6932;51.438;5.470;2022-07-18T10:31:21;4.93;;;1.60;;
13720;SDS011;6932;51.438;5.470;2022-07-18T10:33:48;1.90;;;1.42;;
13720;SDS011;6932;51.438;5.470;2022-07-18T10:36:16;4.20;;;1.40;;
13720;SDS011;6932;51.438;5.470;2022-07-18T10:39:04;4.10;;;1.60;;
13720;SDS011;6932;51.438;5.470;2022-07-18T10:41:32;2.08;;;1.50;;
13720;SDS011;6932;51.438;5.470;2022-07-18T11:00:00;3.65;;;1.60;;
13720;SDS011;6932;51.438;5.470;2022-07-18T11:02:40;3.47;;;1.77;;
13720;SDS011;6932;51.438;5.470;2022-07-18T11:23:53;3.30;;;1.80;;
13720;SDS011;6932;51.438;5.470;2022-07-18T11:26:34;2.97;;;1.60;;
13720;SDS011;6932;51.438;5.470;2022-07-18T11:29:03;3.20;;;1.55;;
13720;SDS011;6932;51.438;5.470;2022-07-18T11:31:30;4.75;;;1.60;;
13720;SDS011;6932;51.438;5.470;2022-07-18T11:34:10;2.15;;;1.50;;
13720;SDS011;6932;51.438;5.470;2022-07-18T11:36:38;3.42;;;1.80;;
13720;SDS011;6932;51.438;5.470;2022-07-18T11:39:07;2.80;;;1.58;;
13720;SDS011;6932;51.438;5.470;2022-07-18T11:41:36;2.88;;;1.75;;
13720;SDS011;6932;51.438;5.470;2022-07-18T11:44:05;4.68;;;1.60;;
13720;SDS011;6932;51.438;5.470;2022-07-18T11:46:41;5.18;;;1.80;;
13720;SDS011;6932;51.438;5.470;2022-07-18T11:49:07;4.07;;;1.60;;
13720;SDS011;6932;51.438;5.470;2022-07-18T11:51:33;1.85;;;1.38;;
13720;SDS011;6932;51.438;5.470;2022-07-18T11:54:10;3.67;;;1.92;;
13720;SDS011;6932;51.438;5.470;2022-07-18T11:56:53;2.38;;;1.80;;
13720;SDS011;6932;51.438;5.470;2022-07-18T11:59:20;3.97;;;1.80;;
13720;SDS011;6932;51.438;5.470;2022-07-18T12:01:47;3.80;;;1.75;;
13720;SDS011;6932;51.438;5.470;2022-07-18T12:04:23;8.30;;;1.80;;
13720;SDS011;6932;51.438;5.470;2022-07-18T12:09:37;3.65;;;1.60;;
13720;SDS011;6932;51.438;5.470;2022-07-18T12:12:10;3.17;;;1.60;;
13720;SDS011;6932;51.438;5.470;2022-07-18T12:14:37;3.95;;;1.65;;
13720;SDS011;6932;51.438;5.470;2022-07-18T12:17:03;3.85;;;1.80;;
13720;SDS011;6932;51.438;5.470;2022-07-18T12:19:37;1.88;;;1.45;;
13720;SDS011;6932;51.438;5.470;2022-07-18T12:22:08;2.75;;;1.70;;
13720;SDS011;6932;51.438;5.470;2022-07-18T12:24:53;2.97;;;1.80;;
13720;SDS011;6932;51.438;5.470;2022-07-18T12:35:18;5.22;;;1.50;;
13720;SDS011;6932;51.438;5.470;2022-07-18T12:40:43;2.67;;;1.63;;
13720;SDS011;6932;51.438;5.470;2022-07-18T12:43:27;3.58;;;1.85;;
13720;SDS011;6932;51.438;5.470;2022-07-18T12:46:07;2.28;;;1.63;;
13720;SDS011;6932;51.438;5.470;2022-07-18T12:48:36;5.72;;;1.85;;
13720;SDS011;6932;51.438;5.470;2022-07-18T12:51:04;3.15;;;1.63;;
13720;SDS011;6932;51.438;5.470;2022-07-18T12:53:33;3.78;;;1.77;;
13720;SDS011;6932;51.438;5.470;2022-07-18T12:56:09;8.27;;;1.70;;
13720;SDS011;6932;51.438;5.470;2022-07-18T12:58:36;4.63;;;1.70;;
13720;SDS011;6932;51.438;5.470;2022-07-18T13:01:02;1.90;;;1.42;;
13720;SDS011;6932;51.438;5.470;2022-07-18T13:03:28;3.45;;;1.60;;
13720;SDS011;6932;51.438;5.470;2022-07-18T13:05:53;4.15;;;1.58;;
13720;SDS011;6932;51.438;5.470;2022-07-18T13:08:19;2.45;;;1.63;;
13720;SDS011;6932;51.438;5.470;2022-07-18T13:10:47;2.67;;;1.50;;
13720;SDS011;6932;51.438;5.470;2022-07-18T13:13:13;2.75;;;1.70;;
13720;SDS011;6932;51.438;5.470;2022-07-18T13:15:39;3.45;;;1.50;;
13720;SDS011;6932;51.438;5.470;2022-07-18T13:18:04;2.65;;;1.45;;
13720;SDS011;6932;51.438;5.470;2022-07-18T13:20:30;1.55;;;1.45;;
13720;SDS011;6932;51.438;5.470;2022-07-18T13:22:57;3.50;;;1.80;;
13720;SDS011;6932;51.438;5.470;2022-07-18T13:25:26;2.03;;;1.40;;
13720;SDS011;6932;51.438;5.470;2022-07-18T13:27:52;2.58;;;1.40;;
13720;SDS011;6932;51.438;5.470;2022-07-18T13:30:18;1.85;;;1.60;;
13720;SDS011;6932;51.438;5.470;2022-07-18T13:32:44;3.33;;;1.60;;
13720;SDS011;6932;51.438;5.470;2022-07-18T13:35:10;2.70;;;1.80;;
13720;SDS011;6932;51.438;5.470;2022-07-18T13:37:37;2.83;;;1.65;;
13720;SDS011;6932;51.438;5.470;2022-07-18T13:40:03;3.28;;;1.80;;
13720;SDS011;6932;51.438;5.470;2022-07-18T13:42:31;2.60;;;1.52;;
13720;SDS011;6932;51.438;5.470;2022-07-18T13:44:57;1.92;;;1.60;;
13720;SDS011;6932;51.438;5.470;2022-07-18T13:47:23;2.53;;;1.70;;
13720;SDS011;6932;51.438;5.470;2022-07-18T13:49:50;2.92;;;1.50;;
13720;SDS011;6932;51.438;5.470;2022-07-18T13:52:16;2.17;;;1.63;;
13720;SDS011;6932;51.438;5.470;2022-07-18T13:54:42;2.08;;;1.40;;
13720;SDS011;6932;51.438;5.470;2022-07-18T13:57:08;4.53;;;1.60;;
13720;SDS011;6932;51.438;5.470;2022-07-18T13:59:33;2.03;;;1.60;;
13720;SDS011;6932;51.438;5.470;2022-07-18T14:01:59;2.20;;;1.70;;
13720;SDS011;6932;51.438;5.470;2022-07-18T14:04:25;2.83;;;1.70;;
13720;SDS011;6932;51.438;5.470;2022-07-18T14:06:51;2.33;;;1.50;;
13720;SDS011;6932;51.438;5.470;2022-07-18T14:09:17;3.00;;;1.42;;
13720;SDS011;6932;51.438;5.470;2022-07-18T14:11:43;3.25;;;1.80;;
13720;SDS011;6932;51.438;5.470;2022-07-18T14:14:09;4.03;;;1.63;;
13720;SDS011;6932;51.438;5.470;2022-07-18T14:16:35;1.90;;;1.50;;
13720;SDS011;6932;51.438;5.470;2022-07-18T14:19:02;2.80;;;1.60;;
13720;SDS011;6932;51.438;5.470;2022-07-18T14:21:29;3.35;;;1.55;;
13720;SDS011;6932;51.438;5.470;2022-07-18T14:23:55;1.88;;;1.50;;
13720;SDS011;6932;51.438;5.470;2022-07-18T14:26:21;2.08;;;1.60;;
13720;SDS011;6932;51.438;5.470;2022-07-18T14:28:47;2.05;;;1.65;;
13720;SDS011;6932;51.438;5.470;2022-07-18T14:31:13;2.50;;;1.60;;
13720;SDS011;6932;51.438;5.470;2022-07-18T14:33:38;1.83;;;1.40;;
13720;SDS011;6932;51.438;5.470;2022-07-18T14:36:04;2.00;;;1.58;;
13720;SDS011;6932;51.438;5.470;2022-07-18T14:38:30;2.15;;;1.60;;
13720;SDS011;6932;51.438;5.470;2022-07-18T14:40:56;2.78;;;1.50;;
13720;SDS011;6932;51.438;5.470;2022-07-18T14:43:21;5.57;;;1.60;;
13720;SDS011;6932;51.438;5.470;2022-07-18T14:45:47;2.55;;;1.40;;
13720;SDS011;6932;51.438;5.470;2022-07-18T14:48:14;2.67;;;1.70;;
13720;SDS011;6932;51.438;5.470;2022-07-18T14:50:40;3.72;;;1.70;;
13720;SDS011;6932;51.438;5.470;2022-07-18T14:53:05;2.20;;;1.50;;
13720;SDS011;6932;51.438;5.470;2022-07-18T14:55:31;2.47;;;1.40;;
13720;SDS011;6932;51.438;5.470;2022-07-18T14:57:57;4.03;;;1.70;;
13720;SDS011;6932;51.438;5.470;2022-07-18T15:00:23;3.10;;;1.60;;
13720;SDS011;6932;51.438;5.470;2022-07-18T15:02:48;1.83;;;1.50;;
13720;SDS011;6932;51.438;5.470;2022-07-18T15:05:14;2.80;;;1.50;;
13720;SDS011;6932;51.438;5.470;2022-07-18T15:07:40;3.13;;;1.80;;
13720;SDS011;6932;51.438;5.470;2022-07-18T15:10:06;1.77;;;1.38;;
13720;SDS011;6932;51.438;5.470;2022-07-18T15:12:32;1.83;;;1.35;;
13720;SDS011;6932;51.438;5.470;2022-07-18T15:14:58;2.65;;;1.70;;
13720;SDS011;6932;51.438;5.470;2022-07-18T15:17:25;1.70;;;1.40;;
13720;SDS011;6932;51.438;5.470;2022-07-18T15:19:51;2.58;;;1.77;;
13720;SDS011;6932;51.438;5.470;2022-07-18T15:22:17;4.60;;;1.70;;
13720;SDS011;6932;51.438;5.470;2022-07-18T15:24:43;2.78;;;1.33;;
13720;SDS011;6932;51.438;5.470;2022-07-18T15:27:09;2.50;;;1.38;;
13720;SDS011;6932;51.438;5.470;2022-07-18T15:29:35;2.22;;;1.50;;
13720;SDS011;6932;51.438;5.470;2022-07-18T15:32:01;1.65;;;1.42;;
13720;SDS011;6932;51.438;5.470;2022-07-18T15:34:32;3.63;;;1.45;;
13720;SDS011;6932;51.438;5.470;2022-07-18T15:37:02;1.65;;;1.40;;
13720;SDS011;6932;51.438;5.470;2022-07-18T15:39:29;4.80;;;1.65;;
13720;SDS011;6932;51.438;5.470;2022-07-18T15:41:55;1.77;;;1.50;;
13720;SDS011;6932;51.438;5.470;2022-07-18T15:44:21;2.28;;;1.52;;
13720;SDS011;6932;51.438;5.470;2022-07-18T15:46:47;1.80;;;1.40;;
13720;SDS011;6932;51.438;5.470;2022-07-18T15:49:13;1.60;;;1.40;;
13720;SDS011;6932;51.438;5.470;2022-07-18T15:51:38;2.30;;;1.52;;
13720;SDS011;6932;51.438;5.470;2022-07-18T15:54:07;1.90;;;1.23;;
13720;SDS011;6932;51.438;5.470;2022-07-18T15:56:33;2.67;;;1.48;;
13720;SDS011;6932;51.438;5.470;2022-07-18T15:58:59;2.85;;;1.45;;
13720;SDS011;6932;51.438;5.470;2022-07-18T16:01:25;3.45;;;1.60;;